Time;durP1;ratioP1;P1;durP2;ratioP2;P2;SDS_P1;SDS_P2;PMS_P1;PMS_P2;Temp;Humidity;BMP_temperature;BMP_pressure;BME280_temperature;BME280_humidity;BME280_pressure;Samples;Min_cycle;Max_cycle;Signal;HPM_P1;HPM_P2
2022/07/19 00:00:19;;;;;;;16.95;3.03;;;;;;;19.54;51.57;100935.84;5053158;28;20090;-65
2022/07/19 00:02:45;;;;;;;12.20;2.80;;;;;;;19.48;51.57;100931.94;5052831;28;20033;-66
2022/07/19 00:05:12;;;;;;;10.10;2.63;;;;;;;19.37;51.61;100921.44;5035253;28;20353;-66
2022/07/19 00:07:38;;;;;;;12.93;3.13;;;;;;;19.33;52.07;100925.56;5052867;28;20028;-66
2022/07/19 00:10:06;;;;;;;13.75;3.05;;;;;;;19.29;52.07;100920.66;5053042;28;20124;-66
2022/07/19 00:12:32;;;;;;;11.68;2.30;;;;;;;19.29;51.74;100932.38;5052880;28;20035;-65
2022/07/19 00:14:57;;;;;;;11.63;2.75;;;;;;;19.23;52.02;100934.91;5052773;28;20028;-66
2022/07/19 00:17:23;;;;;;;11.65;2.47;;;;;;;19.12;52.03;100924.41;5052701;28;20384;-64
2022/07/19 00:19:48;;;;;;;9.20;3.20;;;;;;;19.13;52.21;100940.56;5052582;28;20035;-66
2022/07/19 00:22:14;;;;;;;12.30;2.65;;;;;;;18.88;52.52;100900.00;5034648;28;20059;-65
2022/07/19 00:24:39;;;;;;;9.32;2.78;;;;;;;19.05;52.77;100934.28;5034652;28;20576;-65
2022/07/19 00:27:05;;;;;;;10.60;2.45;;;;;;;19.01;52.50;100922.91;5034150;28;20068;-65
2022/07/19 00:29:30;;;;;;;19.02;2.55;;;;;;;18.90;53.03;100911.56;5052676;28;20025;-66
2022/07/19 00:31:56;;;;;;;10.55;2.50;;;;;;;18.89;53.06;100923.47;5052418;28;20048;-65
2022/07/19 00:34:21;;;;;;;11.50;2.72;;;;;;;18.87;53.09;100928.22;5052453;28;20060;-65
2022/07/19 00:36:47;;;;;;;13.25;2.75;;;;;;;18.79;53.17;100926.34;5052233;28;20021;-66
2022/07/19 00:39:12;;;;;;;11.30;2.63;;;;;;;18.74;53.46;100920.59;5052561;28;20029;-65
2022/07/19 00:41:40;;;;;;;10.75;2.35;;;;;;;18.64;53.18;100917.19;5052466;28;20116;-65
2022/07/19 00:44:05;;;;;;;13.73;3.17;;;;;;;18.67;53.79;100927.72;5052334;28;20028;-66
2022/07/19 00:46:31;;;;;;;7.00;2.05;;;;;;;18.63;54.32;100929.09;5034589;28;20044;-66
2022/07/19 00:48:56;;;;;;;9.45;2.65;;;;;;;18.57;54.09;100928.94;5034511;28;20387;-65
2022/07/19 00:51:22;;;;;;;11.98;2.40;;;;;;;18.52;54.32;100924.03;5052218;28;20055;-66
2022/07/19 00:53:48;;;;;;;6.50;2.20;;;;;;;18.49;54.63;100932.50;5051931;28;20025;-66
2022/07/19 00:56:14;;;;;;;16.98;3.08;;;;;;;18.43;54.82;100919.59;5052125;28;20037;-65
2022/07/19 00:58:40;;;;;;;10.80;2.40;;;;;;;18.45;54.68;100930.31;5051743;28;20419;-65
2022/07/19 01:01:07;;;;;;;8.00;2.17;;;;;;;18.39;54.77;100933.69;5052030;28;20110;-66
2022/07/19 01:03:40;;;;;;;7.57;2.58;;;;;;;18.14;55.02;100897.50;5051941;28;20037;-65
2022/07/19 01:06:07;;;;;;;11.98;2.25;;;;;;;18.27;54.54;100922.28;5051835;28;20025;-65
2022/07/19 01:08:32;;;;;;;10.48;2.40;;;;;;;18.23;54.84;100920.94;5034135;28;20029;-66
2022/07/19 01:10:58;;;;;;;14.30;2.60;;;;;;;18.26;54.84;100928.75;5051672;28;20033;-66
2022/07/19 01:13:24;;;;;;;20.85;2.53;;;;;;;18.21;54.81;100922.13;5051990;28;20105;-66
2022/07/19 01:15:49;;;;;;;10.57;2.20;;;;;;;18.14;54.96;100919.22;5051650;28;20032;-65
2022/07/19 01:18:15;;;;;;;10.93;2.65;;;;;;;18.11;54.94;100924.97;5051790;28;20112;-65
2022/07/19 01:20:41;;;;;;;9.50;2.88;;;;;;;18.03;55.32;100916.84;5051442;28;20448;-65
2022/07/19 01:23:06;;;;;;;14.55;2.50;;;;;;;18.02;55.74;100929.56;5033485;28;20029;-66
2022/07/19 01:25:34;;;;;;;7.95;1.88;;;;;;;17.94;55.95;100923.28;5051622;28;20033;-65
2022/07/19 01:28:02;;;;;;;7.55;2.20;;;;;;;17.94;55.68;100926.84;5051185;28;20021;-66
2022/07/19 01:30:28;;;;;;;8.68;2.00;;;;;;;17.86;55.36;100915.09;5051643;28;20029;-66
2022/07/19 01:32:56;;;;;;;9.05;2.80;;;;;;;17.75;55.20;100908.16;5051341;28;20094;-65
2022/07/19 01:35:21;;;;;;;7.40;2.30;;;;;;;17.88;55.69;100927.50;5051430;28;20471;-66
2022/07/19 01:37:47;;;;;;;12.20;2.75;;;;;;;17.81;55.77;100918.34;5032840;28;20025;-65
2022/07/19 01:40:15;;;;;;;13.13;2.40;;;;;;;17.90;55.78;100932.78;5033362;28;20087;-66
2022/07/19 01:42:42;;;;;;;12.32;2.58;;;;;;;17.90;55.63;100930.06;5033328;28;20033;-66
2022/07/19 01:45:08;;;;;;;4.70;2.00;;;;;;;17.85;56.01;100918.84;5051277;28;20468;-66
2022/07/19 01:47:35;;;;;;;9.05;2.25;;;;;;;17.77;56.14;100914.25;5051139;28;20427;-65
2022/07/19 01:50:01;;;;;;;9.95;2.03;;;;;;;17.77;55.98;100927.81;5051059;28;20356;-66
2022/07/19 01:52:26;;;;;;;12.35;2.83;;;;;;;17.69;56.53;100918.81;5051242;28;20020;-66
2022/07/19 01:54:52;;;;;;;6.90;2.20;;;;;;;17.58;56.79;100916.41;5051058;28;20124;-66
2022/07/19 01:57:17;;;;;;;6.78;2.30;;;;;;;17.58;57.18;100921.84;5033103;28;20079;-66
2022/07/19 01:59:43;;;;;;;10.15;2.22;;;;;;;17.49;56.74;100912.81;5032656;28;20395;-66
2022/07/19 02:02:08;;;;;;;10.38;2.15;;;;;;;17.47;57.13;100930.25;5050751;28;20028;-66
2022/07/19 02:04:34;;;;;;;11.60;2.63;;;;;;;17.40;57.42;100937.31;5051008;28;20052;-66
2022/07/19 02:07:00;;;;;;;6.82;2.50;;;;;;;17.32;57.49;100923.75;5032947;28;20017;-66
2022/07/19 02:09:25;;;;;;;13.95;2.55;;;;;;;17.26;57.86;100921.66;5051072;28;20488;-66
2022/07/19 02:11:51;;;;;;;9.65;2.47;;;;;;;17.28;58.03;100933.22;5050665;28;20036;-66
2022/07/19 02:14:17;;;;;;;5.75;2.55;;;;;;;17.22;57.82;100936.56;5050896;28;20679;-66
2022/07/19 02:16:43;;;;;;;9.18;2.33;;;;;;;17.20;57.92;100939.44;5050852;28;20025;-66
2022/07/19 02:19:09;;;;;;;9.95;2.22;;;;;;;17.12;58.04;100936.69;5050535;28;20028;-66
2022/07/19 02:21:36;;;;;;;8.98;2.55;;;;;;;17.12;58.56;100939.38;5050724;28;20031;-66
2022/07/19 02:24:03;;;;;;;7.40;2.22;;;;;;;16.95;58.54;100923.19;5050630;28;20029;-65
2022/07/19 02:26:28;;;;;;;5.05;2.28;;;;;;;17.01;58.97;100939.69;5032810;28;20078;-66
2022/07/19 02:28:54;;;;;;;6.47;2.22;;;;;;;16.92;59.12;100934.34;5050412;28;20025;-66
2022/07/19 02:31:20;;;;;;;9.20;2.30;;;;;;;16.92;59.24;100939.78;5050389;28;20029;-65
2022/07/19 02:33:45;;;;;;;7.38;2.30;;;;;;;16.84;59.40;100931.59;5050217;28;20120;-65
2022/07/19 02:36:11;;;;;;;7.70;2.15;;;;;;;16.78;59.84;100929.53;5032654;28;20036;-66
2022/07/19 02:38:37;;;;;;;11.70;2.58;;;;;;;16.76;60.09;100937.81;5050394;28;20017;-66
2022/07/19 02:41:03;;;;;;;22.23;3.35;;;;;;;16.74;60.77;100947.13;5050233;28;20033;-66
2022/07/19 02:43:28;;;;;;;7.80;2.28;;;;;;;16.72;60.08;100946.41;5050188;28;20099;-66
2022/07/19 02:45:54;;;;;;;12.85;2.38;;;;;;;16.63;60.18;100931.09;5050089;28;20025;-66
2022/07/19 02:48:19;;;;;;;15.82;3.10;;;;;;;16.58;60.12;100934.31;5050072;28;20388;-66
2022/07/19 02:50:45;;;;;;;17.67;2.60;;;;;;;16.55;60.04;100931.94;5049830;28;20029;-66
2022/07/19 02:53:10;;;;;;;9.68;2.10;;;;;;;16.59;60.20;100945.97;5050368;28;20856;-65
2022/07/19 02:55:36;;;;;;;9.95;2.80;;;;;;;16.54;60.67;100948.34;5050050;28;20029;-66
2022/07/19 02:58:02;;;;;;;5.57;1.80;;;;;;;16.52;60.77;100951.19;5049434;28;20483;-65
2022/07/19 03:00:28;;;;;;;5.95;1.63;;;;;;;16.43;60.72;100935.03;5050094;28;20057;-66
2022/07/19 03:02:54;;;;;;;8.55;2.67;;;;;;;16.45;60.79;100946.56;5049958;28;20090;-66
2022/07/19 03:05:19;;;;;;;5.80;2.10;;;;;;;16.41;60.89;100954.09;5050189;28;20484;-66
2022/07/19 03:07:45;;;;;;;13.52;3.35;;;;;;;16.36;61.30;100951.03;5031724;28;20040;-66
2022/07/19 03:10:10;;;;;;;11.50;2.40;;;;;;;16.38;61.36;100953.56;5050072;28;20025;-66
2022/07/19 03:12:36;;;;;;;6.53;2.72;;;;;;;16.35;61.46;100957.41;5049754;28;20468;-66
2022/07/19 03:15:03;;;;;;;7.35;2.63;;;;;;;16.23;61.55;100945.16;5049875;28;20114;-66
2022/07/19 03:17:28;;;;;;;28.85;2.75;;;;;;;16.34;61.46;100957.63;5049802;28;20040;-66
2022/07/19 03:19:54;;;;;;;21.95;3.13;;;;;;;16.27;61.54;100951.97;5049782;28;20033;-66
2022/07/19 03:22:19;;;;;;;19.40;3.30;;;;;;;16.26;61.86;100949.41;5050024;28;20063;-66
2022/07/19 03:24:44;;;;;;;22.60;3.10;;;;;;;16.30;61.62;100956.19;5049693;28;20025;-66
2022/07/19 03:27:10;;;;;;;11.45;2.38;;;;;;;16.32;61.50;100959.63;5049788;28;20468;-66
2022/07/19 03:29:35;;;;;;;12.73;2.47;;;;;;;16.24;61.54;100948.69;5049873;28;20549;-66
2022/07/19 03:32:01;;;;;;;13.25;2.20;;;;;;;16.32;61.74;100965.03;5031580;28;20754;-66
2022/07/19 03:34:28;;;;;;;11.82;2.42;;;;;;;16.30;61.50;100967.88;5049727;28;20079;-66
2022/07/19 03:36:54;;;;;;;13.85;2.60;;;;;;;16.29;61.93;100965.34;5049517;28;20364;-66
2022/07/19 03:39:19;;;;;;;8.27;2.25;;;;;;;16.28;62.23;100971.75;5049675;28;20032;-66
2022/07/19 03:41:45;;;;;;;10.40;2.92;;;;;;;16.30;62.40;100967.88;5049481;28;20024;-66
2022/07/19 03:44:10;;;;;;;10.25;2.35;;;;;;;16.30;62.21;100961.63;5047999;28;20136;-66
2022/07/19 03:46:36;;;;;;;20.33;3.13;;;;;;;16.33;62.36;100961.31;5049577;28;20029;-66
2022/07/19 03:49:01;;;;;;;15.15;3.10;;;;;;;16.38;62.58;100980.66;5049735;28;20045;-66
2022/07/19 03:51:27;;;;;;;9.43;2.70;;;;;;;16.46;61.93;100978.91;5031900;28;20029;-66
2022/07/19 03:53:52;;;;;;;8.10;2.28;;;;;;;16.51;61.28;100986.56;5049546;28;20484;-66
2022/07/19 03:56:20;;;;;;;28.42;4.28;;;;;;;16.56;60.50;100981.50;5049575;28;20063;-66
2022/07/19 03:58:46;;;;;;;11.60;2.33;;;;;;;16.71;59.53;100983.50;5031171;28;20053;-66
2022/07/19 04:01:12;;;;;;;14.65;2.83;;;;;;;16.84;59.02;100983.94;5049673;28;20032;-66
2022/07/19 04:03:38;;;;;;;16.38;2.55;;;;;;;16.95;58.61;100980.09;5053047;28;20045;-66
2022/07/19 04:06:06;;;;;;;16.73;2.30;;;;;;;17.00;58.27;100964.22;5052916;28;20060;-66
2022/07/19 04:08:31;;;;;;;15.75;2.88;;;;;;;17.29;58.50;100984.53;5053257;28;20459;-66
2022/07/19 04:10:57;;;;;;;15.23;3.25;;;;;;;17.45;58.07;100981.94;5034989;28;20064;-65
2022/07/19 04:13:23;;;;;;;25.55;4.15;;;;;;;17.70;57.06;100977.47;5035028;28;20724;-66
2022/07/19 04:15:48;;;;;;;26.08;3.28;;;;;;;17.87;56.36;100974.66;5034722;28;20033;-66
2022/07/19 04:18:14;;;;;;;21.02;2.90;;;;;;;18.11;56.09;100979.28;5035074;28;20079;-66
2022/07/19 04:20:39;;;;;;;14.93;3.28;;;;;;;18.33;56.09;100980.50;5052851;28;20029;-66
2022/07/19 04:23:05;;;;;;;29.02;3.78;;;;;;;18.49;55.77;100981.41;5052588;28;20019;-66
2022/07/19 04:25:30;;;;;;;16.33;3.60;;;;;;;18.73;55.20;100988.72;5052908;28;20029;-66
2022/07/19 04:27:56;;;;;;;15.88;2.78;;;;;;;18.87;54.65;100988.88;5034794;28;20097;-66
2022/07/19 04:30:21;;;;;;;12.80;2.53;;;;;;;19.07;53.96;100989.34;5052721;28;20656;-66
2022/07/19 04:32:47;;;;;;;10.88;2.40;;;;;;;19.21;53.20;100994.06;5052603;28;20025;-66
2022/07/19 04:35:12;;;;;;;10.20;2.47;;;;;;;19.28;52.67;100971.47;5052715;28;20061;-66
2022/07/19 04:37:38;;;;;;;17.35;2.95;;;;;;;19.51;52.29;100982.47;5052591;28;20410;-66
2022/07/19 04:40:04;;;;;;;17.20;3.08;;;;;;;19.71;52.29;100994.63;5052686;28;20033;-66
2022/07/19 04:42:29;;;;;;;12.70;3.05;;;;;;;19.74;51.95;100976.03;5052495;28;20033;-66
2022/07/19 04:44:55;;;;;;;15.70;2.78;;;;;;;19.99;51.65;100982.19;5051921;28;20047;-66
2022/07/19 04:47:20;;;;;;;13.13;2.45;;;;;;;20.12;51.20;100985.25;5052427;28;20055;-66
2022/07/19 04:49:46;;;;;;;15.68;2.63;;;;;;;20.28;50.25;100987.00;5052064;28;20024;-66
2022/07/19 04:52:11;;;;;;;13.48;2.17;;;;;;;20.31;50.19;100971.13;5052384;28;20040;-66
2022/07/19 04:54:37;;;;;;;9.55;2.42;;;;;;;20.44;49.93;100960.47;5052414;28;20025;-66
2022/07/19 04:57:02;;;;;;;14.38;2.80;;;;;;;20.76;49.50;100984.72;5051806;28;20029;-66
2022/07/19 04:59:28;;;;;;;20.73;3.08;;;;;;;20.94;49.30;100981.72;5033886;28;20041;-66
2022/07/19 05:01:53;;;;;;;11.02;2.50;;;;;;;21.17;48.64;100980.63;5051959;28;20021;-66
2022/07/19 05:04:20;;;;;;;12.55;2.70;;;;;;;21.35;48.00;100980.25;5052119;28;20514;-66
2022/07/19 05:06:45;;;;;;;23.23;3.00;;;;;;;21.56;47.20;100970.28;5051933;28;20031;-66
2022/07/19 05:09:11;;;;;;;16.20;3.00;;;;;;;21.77;47.18;100975.00;5052088;28;20544;-66
2022/07/19 05:11:37;;;;;;;15.88;3.08;;;;;;;21.99;46.78;100977.56;5051770;28;20476;-66
2022/07/19 05:14:02;;;;;;;13.85;2.75;;;;;;;22.19;46.12;100973.16;5051597;28;20029;-66
2022/07/19 05:16:28;;;;;;;12.55;2.95;;;;;;;22.36;45.04;100965.56;5051917;28;20025;-67
2022/07/19 05:18:53;;;;;;;21.77;2.90;;;;;;;22.60;nan;100973.41;5051973;28;20052;-66
2022/07/19 05:21:19;;;;;;;30.45;3.25;;;;;;;22.82;44.25;100977.00;5051920;28;20499;-66
2022/07/19 05:23:44;;;;;;;17.48;2.83;;;;;;;22.92;43.47;100964.63;5051780;28;20021;-66
2022/07/19 05:26:10;;;;;;;17.33;3.28;;;;;;;23.10;42.85;100966.88;5051576;28;20028;-65
2022/07/19 05:28:35;;;;;;;13.95;2.65;;;;;;;23.30;42.34;100968.75;5051486;28;20025;-66
2022/07/19 05:31:01;;;;;;;11.02;2.65;;;;;;;23.49;42.24;100973.50;5051170;28;20028;-66
2022/07/19 05:33:28;;;;;;;12.18;2.30;;;;;;;23.69;42.20;100977.19;5051516;28;20124;-66
2022/07/19 05:35:56;;;;;;;10.93;3.10;;;;;;;23.83;41.26;100965.22;5033259;28;20082;-66
2022/07/19 05:38:21;;;;;;;7.53;2.50;;;;;;;24.11;40.94;100970.63;5051134;28;20121;-66
2022/07/19 05:40:47;;;;;;;17.23;2.95;;;;;;;24.32;40.88;100973.22;5051047;28;20123;-66
2022/07/19 05:43:13;;;;;;;14.77;2.70;;;;;;;24.51;40.59;100975.16;5051224;28;20043;-66
2022/07/19 05:45:40;;;;;;;28.10;3.45;;;;;;;24.63;40.17;100951.50;5051232;28;20025;-66
2022/07/19 05:48:05;;;;;;;13.10;2.72;;;;;;;24.90;40.82;100969.72;5051029;28;20051;-66
2022/07/19 05:50:31;;;;;;;14.93;3.33;;;;;;;25.01;39.19;100957.25;5051068;28;20048;-66
2022/07/19 05:52:56;;;;;;;10.38;2.58;;;;;;;25.18;37.92;100964.81;5050951;28;20035;-66
2022/07/19 05:55:22;;;;;;;7.32;2.28;;;;;;;25.33;37.81;100968.22;5050994;28;20696;-66
2022/07/19 05:57:47;;;;;;;11.35;2.78;;;;;;;25.48;37.16;100971.56;5050404;28;20476;-66
2022/07/19 06:00:14;;;;;;;10.38;2.50;;;;;;;25.53;36.99;100963.50;5051091;28;20148;-66
2022/07/19 06:02:40;;;;;;;6.85;2.33;;;;;;;25.76;36.31;100980.34;5050792;28;20058;-66
2022/07/19 06:05:06;;;;;;;8.65;1.98;;;;;;;25.86;34.87;100958.72;5051024;28;20086;-66
2022/07/19 06:07:31;;;;;;;8.30;2.25;;;;;;;26.10;34.37;100959.94;5050748;28;20365;-66
2022/07/19 06:09:57;;;;;;;12.18;2.33;;;;;;;26.19;34.07;100939.34;5032695;28;20032;-66
2022/07/19 06:12:22;;;;;;;7.15;2.33;;;;;;;26.56;33.48;100965.16;5050671;28;20024;-66
2022/07/19 06:14:48;;;;;;;5.78;2.13;;;;;;;26.80;32.58;100967.09;5050510;28;20028;-66
2022/07/19 06:17:13;;;;;;;8.88;2.35;;;;;;;26.86;32.74;100938.66;5050811;28;20066;-66
2022/07/19 06:19:39;;;;;;;5.22;1.80;;;;;;;27.10;32.30;100944.16;5050600;28;20036;-67
2022/07/19 06:22:04;;;;;;;14.02;2.28;;;;;;;27.39;32.05;100962.75;5050328;28;20051;-66
2022/07/19 06:24:29;;;;;;;10.25;2.05;;;;;;;27.51;31.36;100968.34;5049915;28;20078;-67
2022/07/19 06:26:55;;;;;;;10.35;1.95;;;;;;;27.56;31.60;100966.59;5050324;28;20021;-66
2022/07/19 06:29:20;;;;;;;8.32;2.17;;;;;;;27.70;31.04;100957.06;5032497;28;20037;-67
2022/07/19 06:31:46;;;;;;;8.05;1.70;;;;;;;27.78;30.99;100964.19;5050597;28;20119;-66
2022/07/19 06:34:11;;;;;;;3.50;1.83;;;;;;;27.88;30.99;100962.63;5050535;28;20079;-66
2022/07/19 06:36:36;;;;;;;8.02;2.30;;;;;;;28.03;30.88;100954.78;5050385;28;20083;-66
2022/07/19 06:39:02;;;;;;;6.22;1.67;;;;;;;28.26;30.36;100954.03;5050364;28;20070;-66
2022/07/19 06:41:28;;;;;;;7.90;1.65;;;;;;;28.50;29.68;100955.81;5050154;28;20507;-66
2022/07/19 06:43:53;;;;;;;15.75;2.53;;;;;;;28.66;29.45;100957.09;5050212;28;20025;-66
2022/07/19 06:46:18;;;;;;;8.77;1.83;;;;;;;28.77;29.36;100954.34;5050355;28;20658;-67
2022/07/19 06:48:44;;;;;;;5.70;1.85;;;;;;;28.93;29.15;100955.53;5050368;28;20029;-66
2022/07/19 06:51:09;;;;;;;10.52;2.28;;;;;;;29.07;28.51;100954.25;5050396;28;20718;-66
2022/07/19 06:53:35;;;;;;;5.88;1.83;;;;;;;29.23;28.40;100948.00;5032203;28;20043;-66
2022/07/19 06:56:01;;;;;;;11.30;2.25;;;;;;;29.30;27.51;100940.47;5049922;28;20033;-66
2022/07/19 06:58:28;;;;;;;12.07;1.92;;;;;;;29.49;27.37;100951.13;5049965;28;20052;-66
2022/07/19 07:00:54;;;;;;;4.63;1.52;;;;;;;29.61;27.15;100959.44;5050022;28;20496;-67
2022/07/19 07:03:19;;;;;;;5.68;1.35;;;;;;;29.75;26.90;100961.69;5032272;28;20075;-66
2022/07/19 07:05:45;;;;;;;3.88;1.30;;;;;;;29.76;26.55;100940.41;5050026;28;20031;-67
2022/07/19 07:08:11;;;;;;;6.20;1.20;;;;;;;29.96;26.08;100968.50;5032113;28;20105;-67
2022/07/19 07:10:37;;;;;;;3.17;1.33;;;;;;;30.05;26.08;100962.31;5032001;28;20048;-66
2022/07/19 07:13:02;;;;;;;9.90;1.65;;;;;;;30.17;26.11;100948.44;5049775;28;20040;-66
2022/07/19 07:15:28;;;;;;;3.75;1.40;;;;;;;30.30;26.26;100957.31;5049887;28;20013;-66
2022/07/19 07:17:54;;;;;;;5.65;1.17;;;;;;;30.39;25.52;100957.75;5049599;28;20052;-67
2022/07/19 07:20:19;;;;;;;8.95;1.40;;;;;;;30.48;25.51;100950.72;5049857;28;20033;-66
2022/07/19 07:22:45;;;;;;;8.85;1.48;;;;;;;30.58;25.46;100956.44;5049937;28;20048;-66
2022/07/19 07:25:10;;;;;;;3.22;1.27;;;;;;;30.66;24.86;100944.94;5049618;28;20724;-67
2022/07/19 07:27:36;;;;;;;3.28;1.15;;;;;;;30.63;24.53;100932.44;5049642;28;20029;-66
2022/07/19 07:30:03;;;;;;;4.25;1.33;;;;;;;30.92;24.47;100960.97;5031534;28;20052;-66
2022/07/19 07:32:29;;;;;;;3.28;1.10;;;;;;;30.99;24.64;100949.69;5049686;28;20407;-66
2022/07/19 07:34:54;;;;;;;4.63;1.23;;;;;;;31.05;24.53;100941.22;5049397;28;20021;-67
2022/07/19 07:37:20;;;;;;;4.57;1.70;;;;;;;31.16;24.36;100953.28;5051426;28;20036;-67
2022/07/19 07:39:45;;;;;;;2.25;1.08;;;;;;;31.24;24.02;100956.47;5053635;28;20053;-67
2022/07/19 07:42:10;;;;;;;7.25;1.13;;;;;;;31.34;24.31;100951.09;5035497;28;20032;-66
2022/07/19 07:44:36;;;;;;;3.40;1.00;;;;;;;31.43;24.13;100955.13;5053385;28;20037;-67
2022/07/19 07:47:02;;;;;;;3.05;1.30;;;;;;;31.45;23.54;100944.63;5053344;28;20024;-67
2022/07/19 07:49:27;;;;;;;4.43;1.27;;;;;;;31.49;23.43;100939.38;5053433;28;20021;-67
2022/07/19 07:51:53;;;;;;;2.03;1.40;;;;;;;31.66;23.34;100952.09;5047529;28;20017;-66
2022/07/19 07:54:19;;;;;;;4.88;0.90;;;;;;;31.72;22.83;100953.84;5046740;28;20033;-67
2022/07/19 07:56:44;;;;;;;3.10;1.27;;;;;;;31.76;23.00;100954.19;5032399;28;20526;-66
2022/07/19 07:59:10;;;;;;;6.05;1.30;;;;;;;31.81;23.20;100954.28;5032890;28;20104;-66
2022/07/19 08:01:37;;;;;;;4.32;1.02;;;;;;;31.77;22.85;100951.16;5033298;28;20102;-66
2022/07/19 08:04:04;;;;;;;7.40;1.05;;;;;;;31.88;22.68;100952.13;5033031;28;20564;-67
2022/07/19 08:06:29;;;;;;;3.42;1.05;;;;;;;31.86;22.68;100957.97;5033229;28;20041;-67
2022/07/19 08:08:55;;;;;;;3.10;1.10;;;;;;;31.92;22.60;100945.00;5032859;28;20036;-66
2022/07/19 08:11:21;;;;;;;3.70;1.30;;;;;;;32.00;22.60;100947.28;5033016;28;20365;-66
2022/07/19 08:13:46;;;;;;;1.83;1.20;;;;;;;32.03;22.63;100944.84;5015135;28;20033;-66
2022/07/19 08:16:12;;;;;;;3.83;1.20;;;;;;;32.14;22.41;100949.41;5032959;28;20026;-67
2022/07/19 08:18:37;;;;;;;3.65;1.38;;;;;;;32.10;22.52;100923.28;5032880;28;20487;-67
2022/07/19 08:21:03;;;;;;;7.38;1.65;;;;;;;32.30;22.38;100940.16;5032935;28;20029;-66
2022/07/19 08:23:28;;;;;;;5.82;1.58;;;;;;;32.34;22.14;100935.78;5032886;28;20506;-74
2022/07/19 08:25:54;;;;;;;1.23;0.90;;;;;;;32.33;21.92;100939.66;5032793;28;20542;-75
2022/07/19 08:28:19;;;;;;;1.63;0.77;;;;;;;32.34;21.72;100938.53;5033074;28;20387;-75
2022/07/19 08:30:45;;;;;;;4.55;1.20;;;;;;;32.31;22.00;100925.16;5033043;28;20371;-75
2022/07/19 08:33:10;;;;;;;3.85;0.90;;;;;;;32.47;22.04;100945.63;5032819;28;20049;-75
2022/07/19 08:35:36;;;;;;;3.88;1.10;;;;;;;32.52;21.41;100943.75;5015260;28;20036;-75
2022/07/19 08:38:01;;;;;;;3.67;0.98;;;;;;;32.65;21.20;100933.31;5032925;28;20045;-75
2022/07/19 08:40:27;;;;;;;1.92;1.27;;;;;;;32.62;21.42;100936.63;5032937;28;20037;-75
2022/07/19 08:42:53;;;;;;;2.60;1.05;;;;;;;32.65;21.43;100936.09;5032731;28;20032;-75
2022/07/19 08:45:22;;;;;;;2.10;1.10;;;;;;;32.70;21.12;100927.78;5032945;28;20040;-75
2022/07/19 08:47:48;;;;;;;3.72;1.00;;;;;;;32.74;21.01;100924.19;5032215;28;20380;-75
2022/07/19 08:50:14;;;;;;;2.17;1.10;;;;;;;32.80;21.71;100933.41;5032742;28;20757;-75
2022/07/19 08:52:41;;;;;;;5.22;1.00;;;;;;;32.85;21.74;100919.59;5014941;28;20116;-75
2022/07/19 08:55:07;;;;;;;3.58;1.10;;;;;;;32.92;21.62;100909.94;5031311;28;20117;-75
2022/07/19 09:00:17;;;;;;;2.05;0.77;;;;;;;33.01;21.40;100910.28;5031397;28;20080;-75
2022/07/19 09:02:55;;;;;;;5.35;1.23;;;;;;;33.07;20.86;100909.22;5031333;28;20480;-75
2022/07/19 09:05:22;;;;;;;3.63;0.82;;;;;;;33.08;20.85;100902.53;5031436;28;20227;-75
2022/07/19 09:08:02;;;;;;;5.72;1.20;;;;;;;33.06;20.88;100907.53;5031729;28;20021;-75
2022/07/19 09:10:28;;;;;;;1.88;0.90;;;;;;;33.11;20.74;100905.59;5032017;28;20025;-75
2022/07/19 09:13:00;;;;;;;6.82;1.40;;;;;;;33.18;20.95;100905.38;5031378;28;20029;-76
2022/07/19 09:15:44;;;;;;;4.18;0.98;;;;;;;33.24;20.75;100907.09;5032009;28;20033;-75
2022/07/19 09:18:13;;;;;;;2.08;1.27;;;;;;;33.32;20.44;100903.78;5031893;28;20053;-75
2022/07/19 09:20:39;;;;;;;4.10;1.33;;;;;;;33.20;21.22;100894.84;5032488;28;20032;-76
2022/07/19 09:23:06;;;;;;;3.17;1.20;;;;;;;33.30;20.72;100894.91;5034214;28;20041;-76
2022/07/19 09:25:37;;;;;;;2.45;0.80;;;;;;;33.29;21.28;100901.53;5033521;28;20037;-75
2022/07/19 09:28:03;;;;;;;3.55;1.45;;;;;;;33.26;20.73;100891.81;5032907;28;20028;-75
2022/07/19 09:30:38;;;;;;;3.20;1.02;;;;;;;33.34;20.50;100909.94;5033791;28;20026;-75
2022/07/19 09:33:14;;;;;;;1.40;1.00;;;;;;;33.34;20.35;100901.59;5032960;28;20033;-76
2022/07/19 09:35:49;;;;;;;4.90;1.08;;;;;;;33.30;20.71;100901.28;5014747;28;20033;-75
2022/07/19 09:38:28;;;;;;;1.70;1.05;;;;;;;33.31;20.45;100902.97;5032487;28;20075;-76
2022/07/19 09:41:12;;;;;;;4.93;1.15;;;;;;;33.23;20.53;100895.13;5031916;28;20025;-76
2022/07/19 09:43:55;;;;;;;3.20;1.02;;;;;;;33.25;20.59;100895.69;5014441;28;20045;-75
2022/07/19 09:46:36;;;;;;;1.98;0.93;;;;;;;33.16;20.72;100885.34;5014483;28;20041;-75
2022/07/19 09:49:13;;;;;;;1.33;0.95;;;;;;;33.08;20.99;100872.81;5031493;28;20025;-76
2022/07/19 09:51:41;;;;;;;1.42;1.10;;;;;;;33.08;20.99;100889.47;5031849;28;20049;-75
2022/07/19 09:54:09;;;;;;;3.72;0.98;;;;;;;33.04;20.63;100887.50;5031721;28;20053;-75
2022/07/19 09:56:37;;;;;;;3.35;1.15;;;;;;;33.04;21.18;100890.28;5031646;28;20472;-75
2022/07/19 09:59:03;;;;;;;1.52;0.95;;;;;;;33.06;21.22;100896.41;5030549;28;20476;-75
2022/07/19 10:01:30;;;;;;;3.05;1.15;;;;;;;33.04;20.96;100866.06;5013678;28;20030;-75
2022/07/19 10:04:01;;;;;;;4.70;0.90;;;;;;;33.16;20.94;100894.53;5031201;28;20448;-75
2022/07/19 10:06:27;;;;;;;2.40;1.00;;;;;;;33.19;20.61;100890.34;5031450;28;20468;-75
2022/07/19 10:08:56;;;;;;;4.18;1.27;;;;;;;33.19;21.09;100885.66;5031477;28;20032;-75
2022/07/19 10:11:21;;;;;;;3.50;1.00;;;;;;;33.24;20.95;100884.84;5031599;28;20051;-75
2022/07/19 10:13:49;;;;;;;1.05;0.90;;;;;;;33.30;20.74;100887.38;5030996;28;20535;-76
2022/07/19 10:16:20;;;;;;;4.15;1.17;;;;;;;33.35;20.79;100881.00;5031029;28;20018;-75
2022/07/19 10:19:01;;;;;;;1.88;1.10;;;;;;;33.37;20.95;100879.63;5031248;28;20395;-75
2022/07/19 10:21:27;;;;;;;7.72;1.52;;;;;;;33.41;21.13;100880.78;5031127;28;20078;-75
2022/07/19 10:23:53;;;;;;;2.10;1.20;;;;;;;33.43;21.01;100874.97;5031061;28;20420;-75
2022/07/19 10:26:38;;;;;;;1.55;1.15;;;;;;;33.43;21.42;100874.97;5030932;28;20417;-75
2022/07/19 10:29:18;;;;;;;2.72;1.20;;;;;;;33.57;20.81;100878.91;5030796;28;20571;-75
2022/07/19 10:32:04;;;;;;;3.10;0.85;;;;;;;33.61;20.69;100882.81;5031133;28;20025;-75
2022/07/19 10:34:30;;;;;;;1.10;0.82;;;;;;;33.67;20.89;100876.16;5030976;28;20037;-75
2022/07/19 10:36:56;;;;;;;2.67;1.33;;;;;;;33.64;20.50;100877.56;5012892;28;20140;-75
2022/07/19 10:39:35;;;;;;;3.00;1.25;;;;;;;33.68;20.61;100877.84;5013037;28;20039;-74
2022/07/19 10:42:10;;;;;;;1.48;1.10;;;;;;;33.70;20.44;100881.19;5030645;28;20491;-75
2022/07/19 10:44:56;;;;;;;2.45;0.93;;;;;;;33.69;20.52;100873.97;5030633;28;20067;-75
2022/07/19 10:47:39;;;;;;;2.08;1.02;;;;;;;33.68;20.49;100875.06;5019718;28;20041;-75
2022/07/19 10:50:14;;;;;;;1.25;0.90;;;;;;;33.65;20.57;100876.44;5030589;28;20061;-76
2022/07/19 10:52:42;;;;;;;2.97;1.00;;;;;;;33.52;20.65;100851.06;5030647;28;20056;-75
2022/07/19 10:57:47;;;;;;;0.70;0.65;;;;;;;33.57;20.67;100863.06;5030102;28;20039;-76
2022/07/19 11:00:16;;;;;;;2.53;1.38;;;;;;;33.58;20.46;100861.09;5030466;28;20038;-75
2022/07/19 11:02:42;;;;;;;1.35;1.13;;;;;;;33.56;20.68;100858.59;5030183;28;20131;-75
2022/07/19 11:05:08;;;;;;;2.05;1.00;;;;;;;33.54;20.80;100857.19;5030330;28;20480;-75
2022/07/19 11:07:33;;;;;;;3.33;1.20;;;;;;;33.49;20.61;100851.63;5030404;28;20537;-75
2022/07/19 11:09:59;;;;;;;2.72;1.08;;;;;;;33.44;20.99;100838.53;5012419;28;20032;-75
2022/07/19 11:12:36;;;;;;;3.08;1.10;;;;;;;33.44;20.94;100840.47;5034166;28;20033;-75
2022/07/19 11:15:08;;;;;;;2.40;1.10;;;;;;;33.53;20.19;100844.41;5034481;28;20025;-75
2022/07/19 11:17:33;;;;;;;6.78;1.20;;;;;;;33.52;20.38;100843.56;5034052;28;20047;-75
2022/07/19 11:20:21;;;;;;;2.45;0.85;;;;;;;33.49;20.47;100844.09;5034175;28;20376;-75
2022/07/19 11:22:48;;;;;;;1.63;1.00;;;;;;;33.43;20.33;100822.09;5034159;28;20041;-74
2022/07/19 11:25:22;;;;;;;2.28;1.00;;;;;;;33.41;20.62;100825.16;5034267;28;20049;-75